Time;durP1;ratioP1;P1;durP2;ratioP2;P2;SDS_P1;SDS_P2;PMS_P1;PMS_P2;Temp;Humidity;BMP_temperature;BMP_pressure;BME280_temperature;BME280_humidity;BME280_pressure;Samples;Min_cycle;Max_cycle;Signal;HPM_P1;HPM_P2
2022/01/28 00:04:50;;;;;;;19.63;4.72;;;;;;;4.67;84.60;100969.81;5042552;28;20029;-77
2022/01/28 00:07:15;;;;;;;16.23;3.25;;;;;;;5.23;83.64;100978.09;5041845;28;20055;-78
2022/01/28 00:09:40;;;;;;;12.27;2.95;;;;;;;5.08;83.43;100997.13;5042180;28;20392;-77
2022/01/28 00:12:10;;;;;;;9.45;2.38;;;;;;;4.90;83.57;100995.78;5042362;28;20044;-77
2022/01/28 00:17:39;;;;;;;9.38;1.95;;;;;;;4.71;84.46;100997.28;5042277;28;20037;-77
2022/01/28 00:39:08;;;;;;;11.00;2.88;;;;;;;4.69;85.82;101027.19;5059481;28;20137;-78
2022/01/28 00:41:33;;;;;;;13.70;2.85;;;;;;;5.02;84.88;101026.63;5042603;28;20037;-76
2022/01/28 00:43:59;;;;;;;20.30;4.40;;;;;;;5.02;84.11;101031.22;5042848;28;20492;-77
2022/01/28 00:46:24;;;;;;;12.52;2.78;;;;;;;4.84;83.76;101035.22;5042190;28;20275;-77
2022/01/28 00:48:49;;;;;;;8.60;3.28;;;;;;;4.93;83.55;101038.63;5045814;28;20107;-77
2022/01/28 00:51:15;;;;;;;11.40;3.40;;;;;;;4.90;84.09;101034.44;5044958;28;20094;-76
2022/01/28 00:53:40;;;;;;;9.98;2.63;;;;;;;5.00;84.18;101022.47;5046312;28;20281;-77
2022/01/28 00:56:06;;;;;;;8.63;2.30;;;;;;;4.81;85.15;101038.31;5045307;28;20086;-78
2022/01/28 00:58:31;;;;;;;17.60;4.13;;;;;;;4.76;84.95;101048.88;5045628;28;20025;-77
2022/01/28 01:00:57;;;;;;;13.48;2.53;;;;;;;4.74;84.86;101057.16;5045915;28;20037;-77
2022/01/28 01:03:22;;;;;;;12.30;3.88;;;;;;;4.71;84.90;101057.56;5045093;28;20096;-76
2022/01/28 01:05:47;;;;;;;11.50;3.22;;;;;;;5.04;84.79;101055.34;5077140;28;20037;-76
2022/01/28 01:08:13;;;;;;;8.75;2.67;;;;;;;4.69;85.12;101069.59;5045224;28;20120;-77
2022/01/28 01:10:38;;;;;;;17.20;3.40;;;;;;;4.62;85.50;101083.88;5045066;28;20083;-77
2022/01/28 01:13:04;;;;;;;10.73;4.38;;;;;;;4.98;84.21;101082.09;5045663;28;20484;-78
2022/01/28 01:15:35;;;;;;;13.65;2.83;;;;;;;4.69;84.52;101097.44;5061043;28;20443;-77
2022/01/28 01:18:09;;;;;;;10.50;2.53;;;;;;;4.71;84.47;101095.38;5045439;28;20043;-76
2022/01/28 01:20:52;;;;;;;16.67;2.30;;;;;;;4.73;83.21;101104.13;5045424;28;20041;-77
2022/01/28 01:23:27;;;;;;;6.85;2.92;;;;;;;4.91;82.87;101105.53;5045861;28;20523;-77
2022/01/28 01:26:05;;;;;;;10.18;2.83;;;;;;;4.85;84.07;101096.34;5077234;28;20491;-77
2022/01/28 01:28:35;;;;;;;12.82;3.00;;;;;;;4.46;84.54;101106.56;5045341;28;20037;-77
2022/01/28 01:31:17;;;;;;;11.80;3.47;;;;;;;4.51;84.24;101108.69;5044916;28;20049;-77
2022/01/28 01:33:56;;;;;;;13.82;3.83;;;;;;;4.65;84.31;101101.56;5045514;28;20132;-78
2022/01/28 01:36:22;;;;;;;22.75;3.63;;;;;;;4.75;84.28;101114.75;5045167;28;20037;-77
2022/01/28 01:38:47;;;;;;;24.85;6.85;;;;;;;4.79;84.25;101116.03;5045330;28;20017;-78
2022/01/28 01:41:21;;;;;;;15.02;4.28;;;;;;;4.89;84.24;101107.59;5044215;28;20131;-77
2022/01/28 01:43:57;;;;;;;10.40;4.68;;;;;;;4.94;83.98;101107.88;5045489;28;20524;-76
2022/01/28 01:46:44;;;;;;;18.15;3.35;;;;;;;4.37;86.48;101107.69;5044802;28;20380;-77
2022/01/28 01:52:06;;;;;;;12.95;4.07;;;;;;;4.53;85.50;101110.19;5025260;28;20056;-74
2022/01/28 01:54:37;;;;;;;26.77;7.70;;;;;;;4.20;85.64;101105.22;5025822;28;20054;-77
2022/01/28 01:57:03;;;;;;;21.30;3.90;;;;;;;4.06;87.27;101099.66;5024457;28;20037;-77
2022/01/28 01:59:29;;;;;;;14.38;3.47;;;;;;;4.05;86.49;101118.72;5024458;28;20040;-77
2022/01/28 02:01:56;;;;;;;18.70;4.38;;;;;;;4.21;86.55;101112.28;5024892;28;20049;-77
2022/01/28 02:04:22;;;;;;;16.08;3.50;;;;;;;4.14;86.16;101105.97;5024226;28;20345;-76
2022/01/28 02:06:47;;;;;;;15.38;4.07;;;;;;;4.03;86.80;101120.78;5024898;28;20037;-76
2022/01/28 02:09:13;;;;;;;18.52;4.55;;;;;;;4.36;85.97;101122.22;5025136;28;20039;-78
2022/01/28 02:11:42;;;;;;;13.07;3.40;;;;;;;4.03;85.56;101116.22;5024481;28;20049;-77
2022/01/28 02:14:08;;;;;;;14.43;3.65;;;;;;;4.29;85.54;101130.25;5039547;28;20377;-77
2022/01/28 02:16:33;;;;;;;18.80;4.10;;;;;;;4.34;85.52;101135.91;5024008;28;20124;-77
2022/01/28 02:18:59;;;;;;;18.05;4.78;;;;;;;4.09;86.47;101130.81;5024775;28;20021;-77
2022/01/28 02:21:25;;;;;;;13.32;3.33;;;;;;;4.27;85.31;101132.31;5057404;28;20436;-77
2022/01/28 02:23:56;;;;;;;22.33;3.70;;;;;;;4.23;85.35;101137.22;5043645;28;20021;-75
2022/01/28 02:26:22;;;;;;;13.50;3.45;;;;;;;4.15;85.63;101145.47;5042137;28;20045;-76
2022/01/28 02:28:52;;;;;;;14.18;3.92;;;;;;;4.04;85.53;101142.19;5044999;28;20031;-76
2022/01/28 02:34:20;;;;;;;8.88;3.47;;;;;;;3.94;85.60;101160.53;5043223;28;20937;-76
2022/01/28 02:36:46;;;;;;;12.13;3.60;;;;;;;4.13;85.58;101159.13;5076196;28;20080;-76
2022/01/28 02:39:12;;;;;;;12.10;3.35;;;;;;;3.81;86.33;101159.31;5027576;28;20051;-77
2022/01/28 02:41:41;;;;;;;11.68;4.03;;;;;;;3.93;85.37;101161.53;5034718;28;20051;-77
2022/01/28 02:44:19;;;;;;;12.00;2.78;;;;;;;4.31;85.24;101158.72;5043730;28;20348;-77
2022/01/28 02:47:01;;;;;;;10.18;3.95;;;;;;;4.03;84.60;101159.41;5044115;28;20025;-77
2022/01/28 02:49:33;;;;;;;12.93;3.35;;;;;;;4.03;85.28;101167.50;5044362;28;20118;-77
2022/01/28 02:51:59;;;;;;;13.63;3.88;;;;;;;4.18;85.18;101164.81;5044254;28;20186;-77
2022/01/28 02:54:24;;;;;;;13.93;3.08;;;;;;;3.85;85.25;101166.03;5044163;28;20060;-75
2022/01/28 02:56:55;;;;;;;12.43;3.63;;;;;;;3.84;85.70;101168.91;5043714;28;20032;-77
2022/01/28 02:59:21;;;;;;;14.57;4.82;;;;;;;3.67;85.84;101179.03;5044127;28;20455;-77
2022/01/28 03:01:47;;;;;;;12.52;3.42;;;;;;;3.78;85.75;101193.94;5042494;28;20554;-76
2022/01/28 03:04:27;;;;;;;12.70;3.47;;;;;;;3.93;85.44;101193.94;5043977;28;20029;-77
2022/01/28 03:06:52;;;;;;;19.38;5.13;;;;;;;4.32;84.57;101206.31;5044254;28;20515;-76
2022/01/28 03:09:20;;;;;;;10.63;1.73;;;;;;;4.55;82.93;101210.78;5043536;28;20110;-77
2022/01/28 03:11:58;;;;;;;9.35;2.88;;;;;;;4.67;81.98;101216.53;5043868;28;20028;-77
2022/01/28 03:14:38;;;;;;;15.52;3.50;;;;;;;4.08;83.39;101210.16;5043745;28;20090;-76
2022/01/28 03:19:44;;;;;;;12.50;3.15;;;;;;;4.35;83.66;101198.88;5044569;28;20539;-76
2022/01/28 03:22:09;;;;;;;13.90;3.72;;;;;;;3.80;83.16;101208.06;5043536;28;20021;-77
2022/01/28 03:24:35;;;;;;;11.57;4.15;;;;;;;3.59;85.30;101207.75;5044437;28;20484;-77
2022/01/28 03:27:07;;;;;;;19.23;2.95;;;;;;;3.94;85.00;101209.13;5043354;28;20041;-77
2022/01/28 03:29:34;;;;;;;16.02;3.13;;;;;;;4.17;83.69;101214.41;5043401;28;20045;-76
2022/01/28 03:34:43;;;;;;;15.05;2.72;;;;;;;4.39;82.64;101221.78;5043391;28;20549;-77
2022/01/28 03:37:09;;;;;;;13.38;3.90;;;;;;;4.43;81.61;101223.91;5044082;28;20033;-77
2022/01/28 03:39:35;;;;;;;17.38;3.90;;;;;;;4.13;82.52;101218.50;5043027;28;20056;-77
2022/01/28 03:42:02;;;;;;;29.77;4.70;;;;;;;4.15;82.90;101221.03;5060402;28;20029;-77
2022/01/28 03:44:27;;;;;;;26.30;3.67;;;;;;;4.15;82.88;101231.84;5061210;28;20028;-78
2022/01/28 03:46:52;;;;;;;36.63;6.90;;;;;;;4.01;83.48;101242.44;5047314;28;20025;-78
2022/01/28 03:49:18;;;;;;;8.63;3.22;;;;;;;3.80;84.67;101246.69;5043547;28;20571;-77
2022/01/28 03:51:43;;;;;;;10.02;2.85;;;;;;;3.94;84.77;101246.91;5043257;28;20025;-76
2022/01/28 03:54:08;;;;;;;14.63;3.00;;;;;;;4.11;83.33;101247.56;5043419;28;20098;-77
2022/01/28 03:56:34;;;;;;;21.45;4.25;;;;;;;3.79;85.09;101245.00;5043051;28;20094;-77
2022/01/28 03:59:00;;;;;;;9.88;4.10;;;;;;;4.07;84.71;101252.50;5043964;28;20024;-77
2022/01/28 04:01:31;;;;;;;10.52;3.17;;;;;;;3.89;84.78;101265.47;5043263;28;20430;-77
2022/01/28 04:11:53;;;;;;;18.92;3.58;;;;;;;3.97;83.80;101290.53;5043998;28;20051;-76
2022/01/28 04:14:40;;;;;;;11.27;2.80;;;;;;;3.83;84.63;101294.03;5074850;28;20439;-77
2022/01/28 04:17:21;;;;;;;18.27;4.57;;;;;;;3.82;85.13;101301.28;5043235;28;20028;-77
2022/01/28 04:19:48;;;;;;;13.55;3.38;;;;;;;4.09;83.97;101295.47;5043975;28;20035;-76
2022/01/28 04:22:14;;;;;;;18.85;3.80;;;;;;;4.04;84.78;101306.00;5045689;28;20021;-77
2022/01/28 04:24:39;;;;;;;14.50;3.65;;;;;;;4.51;82.55;101317.53;5047287;28;20116;-77
2022/01/28 04:27:05;;;;;;;11.10;4.00;;;;;;;4.28;82.17;101310.34;5046284;28;20045;-76
2022/01/28 04:29:30;;;;;;;14.18;2.72;;;;;;;4.36;82.29;101319.34;5047043;28;20036;-77
2022/01/28 04:31:56;;;;;;;14.90;3.90;;;;;;;4.61;81.76;101324.50;5045891;28;20033;-77
2022/01/28 04:34:22;;;;;;;10.33;3.40;;;;;;;4.06;82.97;101322.88;5046816;28;20254;-77
2022/01/28 04:37:17;;;;;;;16.33;4.15;;;;;;;4.25;82.39;101328.78;5046880;28;20889;-77
2022/01/28 04:42:11;;;;;;;23.20;4.27;;;;;;;4.16;83.29;101331.53;5064096;28;20028;-76
2022/01/28 04:44:51;;;;;;;12.38;3.72;;;;;;;4.12;82.48;101330.22;5067218;28;20257;-76
2022/01/28 04:47:29;;;;;;;13.98;2.75;;;;;;;4.35;81.97;101334.75;5067047;28;20123;-77
2022/01/28 04:50:05;;;;;;;16.23;3.33;;;;;;;4.26;82.52;101333.13;5060809;28;20075;-77
2022/01/28 04:53:02;;;;;;;11.57;3.55;;;;;;;3.88;83.67;101344.78;5046504;28;20628;-76
2022/01/28 05:00:52;;;;;;;18.27;3.55;;;;;;;4.45;81.62;101334.47;5046005;28;20028;-78
2022/01/28 05:03:32;;;;;;;16.98;4.90;;;;;;;4.37;82.35;101332.69;5046159;28;20032;-78
2022/01/28 05:13:54;;;;;;;11.88;4.60;;;;;;;4.66;81.25;101340.97;5046015;28;20052;-78
2022/01/28 05:16:53;;;;;;;22.65;3.97;;;;;;;4.19;82.64;101341.16;5046143;28;20484;-77
2022/01/28 05:27:17;;;;;;;16.70;2.70;;;;;;;3.89;84.08;101362.63;5045490;28;20098;-75
2022/01/28 05:29:42;;;;;;;11.23;4.00;;;;;;;4.27;82.91;101351.84;5046287;28;20021;-77
2022/01/28 05:32:09;;;;;;;20.98;4.78;;;;;;;4.28;82.56;101361.63;5045848;28;20025;-76
2022/01/28 05:34:35;;;;;;;8.63;2.55;;;;;;;3.71;84.58;101375.41;5046018;28;20061;-77
2022/01/28 05:37:00;;;;;;;15.38;3.83;;;;;;;3.81;84.84;101375.19;5045950;28;20566;-77
2022/01/28 05:39:26;;;;;;;10.90;2.72;;;;;;;3.82;84.91;101379.53;5045058;28;20025;-77
2022/01/28 05:41:51;;;;;;;8.05;2.50;;;;;;;4.35;83.26;101379.81;5061404;28;20021;-76
2022/01/28 05:44:18;;;;;;;12.25;3.38;;;;;;;4.40;82.77;101374.69;5063685;28;20028;-77
2022/01/28 05:46:44;;;;;;;10.60;3.88;;;;;;;4.15;83.37;101383.84;5066137;28;20384;-77
2022/01/28 05:49:10;;;;;;;8.48;2.38;;;;;;;4.34;nan;101388.91;5063863;28;20504;-78
2022/01/28 05:51:35;;;;;;;11.65;3.95;;;;;;;4.46;81.27;101392.00;5046056;28;20029;-77
2022/01/28 05:54:01;;;;;;;13.02;3.53;;;;;;;4.22;83.00;101392.06;5044937;28;20040;-76
2022/01/28 05:56:26;;;;;;;14.32;2.85;;;;;;;4.22;82.66;101394.75;5044624;28;20074;-76
2022/01/28 05:58:53;;;;;;;16.60;3.88;;;;;;;3.96;82.74;101396.00;5045296;28;20499;-77
2022/01/28 06:01:18;;;;;;;16.25;3.67;;;;;;;3.79;83.28;101401.50;5044947;28;20465;-75
2022/01/28 06:06:47;;;;;;;21.55;5.00;;;;;;;4.09;83.82;101408.88;5044692;28;20140;-76
2022/01/28 06:09:13;;;;;;;18.45;3.58;;;;;;;3.89;84.22;101411.19;5044483;28;20104;-77
2022/01/28 06:11:39;;;;;;;13.68;3.33;;;;;;;4.31;82.81;101420.66;5043517;28;20032;-77
2022/01/28 06:14:04;;;;;;;8.15;3.78;;;;;;;4.27;82.44;101419.34;5044767;28;20051;-78
2022/01/28 06:16:29;;;;;;;8.65;3.08;;;;;;;4.03;83.52;101428.47;5043864;28;20103;-75
2022/01/28 06:18:55;;;;;;;8.60;2.55;;;;;;;4.24;82.70;101435.94;5044662;28;20029;-77
2022/01/28 06:21:20;;;;;;;11.73;3.10;;;;;;;4.24;83.50;101432.38;5045462;28;20029;-77
2022/01/28 06:23:45;;;;;;;11.60;2.70;;;;;;;4.46;82.56;101438.78;5062228;28;20471;-76
2022/01/28 06:26:11;;;;;;;14.07;3.38;;;;;;;4.32;82.56;101441.25;5064262;28;20031;-77
2022/01/28 06:28:36;;;;;;;10.57;2.88;;;;;;;3.99;85.22;101443.38;5044417;28;20125;-77
2022/01/28 06:31:01;;;;;;;12.05;3.28;;;;;;;3.78;86.14;101453.78;5044675;28;20468;-77
2022/01/28 06:33:27;;;;;;;8.57;2.75;;;;;;;4.26;83.51;101450.09;5044961;28;20436;-76
2022/01/28 06:35:53;;;;;;;11.60;2.80;;;;;;;4.12;84.68;101458.97;5044143;28;20021;-78
2022/01/28 06:38:19;;;;;;;15.55;4.03;;;;;;;3.80;85.08;101457.16;5044325;28;20032;-77
2022/01/28 06:40:44;;;;;;;6.75;2.83;;;;;;;4.11;84.63;101458.13;5043333;28;20017;-76
2022/01/28 06:43:12;;;;;;;11.90;3.70;;;;;;;3.98;85.97;101469.53;5044734;28;20491;-75
2022/01/28 06:45:43;;;;;;;13.52;4.63;;;;;;;3.68;87.32;101480.16;5043350;28;20105;-77
2022/01/28 06:48:23;;;;;;;13.40;4.15;;;;;;;3.93;86.04;101471.91;5044321;28;20052;-77
2022/01/28 06:50:48;;;;;;;20.52;2.85;;;;;;;4.15;85.03;101477.53;5044685;28;20070;-76
2022/01/28 06:53:15;;;;;;;10.93;3.25;;;;;;;4.08;85.21;101480.09;5043507;28;20151;-77
2022/01/28 06:55:41;;;;;;;10.38;3.38;;;;;;;3.90;85.80;101475.81;5043584;28;20025;-76
2022/01/28 06:58:08;;;;;;;15.10;4.10;;;;;;;3.25;88.86;101492.13;5043677;28;20749;-78
2022/01/28 07:00:37;;;;;;;17.42;3.72;;;;;;;3.77;88.15;101495.28;5042105;28;20029;-75
2022/01/28 07:03:04;;;;;;;20.83;5.05;;;;;;;3.90;88.13;101494.72;5044930;28;20056;-79
2022/01/28 07:05:29;;;;;;;26.08;4.43;;;;;;;4.31;85.91;101501.69;5044896;28;20402;-78
2022/01/28 07:07:54;;;;;;;18.85;5.50;;;;;;;4.26;84.90;101493.28;5043975;28;20028;-77
2022/01/28 07:10:20;;;;;;;6.43;2.27;;;;;;;4.25;85.23;101502.41;5043431;28;20021;-77
2022/01/28 07:12:45;;;;;;;10.07;3.75;;;;;;;4.42;84.21;101513.09;5044352;28;20262;-77
2022/01/28 07:15:10;;;;;;;20.48;5.32;;;;;;;4.49;84.28;101508.66;5043622;28;20041;-77
2022/01/28 07:20:38;;;;;;;8.45;3.47;;;;;;;4.51;83.88;101522.81;5043238;28;20124;-77
2022/01/28 07:23:03;;;;;;;11.55;3.83;;;;;;;3.98;85.01;101528.91;5043279;28;20479;-77
2022/01/28 07:25:29;;;;;;;13.40;4.88;;;;;;;4.26;85.69;101528.41;5043765;28;20032;-77
2022/01/28 07:27:54;;;;;;;10.48;3.28;;;;;;;4.47;83.45;101515.25;5043342;28;20470;-78
2022/01/28 07:30:19;;;;;;;11.95;3.58;;;;;;;4.32;84.75;101526.84;5043719;28;20032;-77
2022/01/28 07:32:45;;;;;;;21.70;3.95;;;;;;;4.52;84.17;101523.66;5043168;28;20033;-77
2022/01/28 07:35:10;;;;;;;14.30;3.80;;;;;;;4.08;85.29;101528.69;5042767;28;20155;-77
2022/01/28 07:37:37;;;;;;;22.05;5.93;;;;;;;3.99;85.80;101519.78;5043572;28;20026;-75
2022/01/28 07:40:03;;;;;;;15.55;5.53;;;;;;;3.44;87.13;101541.28;5043532;28;20400;-78
2022/01/28 07:42:33;;;;;;;11.02;3.42;;;;;;;3.57;87.62;101540.72;5062818;28;20535;-77
2022/01/28 07:44:58;;;;;;;15.90;3.60;;;;;;;3.96;85.74;101530.94;5064051;28;20027;-77
2022/01/28 07:47:24;;;;;;;13.20;3.63;;;;;;;4.19;85.13;101530.13;5063461;28;20017;-78
2022/01/28 07:49:49;;;;;;;10.98;2.80;;;;;;;4.02;85.33;101532.94;5054886;28;20135;-78
2022/01/28 07:52:14;;;;;;;10.18;3.35;;;;;;;4.07;85.95;101535.09;5039518;28;20029;-77
2022/01/28 07:54:48;;;;;;;8.63;3.63;;;;;;;4.16;85.52;101541.28;5026475;28;20082;-80
2022/01/28 07:57:13;;;;;;;12.95;5.63;;;;;;;4.00;85.59;101532.28;5046143;28;20032;-75
2022/01/28 07:59:38;;;;;;;13.43;4.32;;;;;;;4.14;85.04;101548.72;5047921;28;20448;-77
2022/01/28 08:02:04;;;;;;;14.35;4.20;;;;;;;3.96;86.09;101550.69;5046675;28;20253;-79
2022/01/28 08:04:29;;;;;;;13.77;4.97;;;;;;;4.13;85.32;101553.28;5047390;28;20056;-78
2022/01/28 08:09:39;;;;;;;18.63;5.22;;;;;;;3.94;86.83;101568.06;5048859;28;20429;-78
2022/01/28 08:12:05;;;;;;;12.82;5.22;;;;;;;4.48;84.74;101566.41;5046944;28;20025;-79
2022/01/28 08:14:31;;;;;;;14.95;3.83;;;;;;;4.36;85.10;101565.13;5046166;28;20113;-78
2022/01/28 08:16:57;;;;;;;9.00;3.15;;;;;;;4.21;85.45;101565.88;5047323;28;20210;-78
2022/01/28 08:19:22;;;;;;;14.52;5.25;;;;;;;4.46;85.11;101564.88;5046723;28;20036;-78
2022/01/28 08:21:47;;;;;;;30.05;4.63;;;;;;;4.08;85.89;101566.47;5047544;28;20094;-78
2022/01/28 08:24:13;;;;;;;12.60;3.40;;;;;;;3.88;85.95;101569.59;5046812;28;20041;-79
2022/01/28 08:26:38;;;;;;;14.30;4.78;;;;;;;4.49;84.59;101567.25;5046489;28;20493;-79
2022/01/28 08:29:05;;;;;;;12.77;4.20;;;;;;;4.02;85.86;101578.81;5047051;28;20044;-80
2022/01/28 08:31:32;;;;;;;18.98;4.20;;;;;;;4.40;84.86;101564.59;5047515;28;20126;-77
2022/01/28 08:33:57;;;;;;;12.48;3.83;;;;;;;4.47;84.32;101570.13;5046096;28;20102;-79
2022/01/28 08:36:22;;;;;;;26.10;5.30;;;;;;;4.42;83.36;101576.06;5046706;28;20025;-78
2022/01/28 08:38:49;;;;;;;17.00;5.22;;;;;;;4.36;84.22;101573.22;5047229;28;20353;-77
2022/01/28 08:41:15;;;;;;;13.52;5.00;;;;;;;4.37;85.14;101580.31;5056921;28;20032;-77
2022/01/28 08:43:41;;;;;;;14.85;3.63;;;;;;;3.94;85.19;101592.34;5051253;28;20024;-79
2022/01/28 08:46:07;;;;;;;17.65;4.53;;;;;;;4.73;83.38;101595.94;5046118;28;20036;-77
2022/01/28 08:48:32;;;;;;;21.23;4.00;;;;;;;4.51;83.80;101595.75;5045487;28;20043;-78
2022/01/28 08:50:58;;;;;;;16.92;4.93;;;;;;;4.68;83.47;101598.31;5046186;28;20032;-79
2022/01/28 08:53:23;;;;;;;14.70;4.60;;;;;;;4.29;85.50;101600.94;5046344;28;20032;-79
2022/01/28 08:55:49;;;;;;;21.23;4.68;;;;;;;3.73;86.90;101607.25;5046435;28;20024;-77
2022/01/28 08:58:15;;;;;;;10.38;3.35;;;;;;;3.98;85.99;101612.59;5046248;28;20029;-77
2022/01/28 09:00:43;;;;;;;13.63;4.20;;;;;;;4.17;85.79;101619.41;5042139;28;20511;-76
2022/01/28 09:03:22;;;;;;;8.77;3.58;;;;;;;4.58;84.29;101608.56;5045086;28;20025;-76
2022/01/28 09:05:48;;;;;;;17.52;5.53;;;;;;;4.06;85.34;101601.75;5046011;28;20376;-75
2022/01/28 09:08:13;;;;;;;39.28;4.47;;;;;;;4.46;83.94;101597.28;5044226;28;20029;-76
2022/01/28 09:10:46;;;;;;;14.90;4.85;;;;;;;4.34;85.01;101602.25;5045695;28;20111;-77
2022/01/28 09:13:23;;;;;;;18.80;4.65;;;;;;;4.32;83.98;101602.44;5043475;28;20472;-76
2022/01/28 09:15:50;;;;;;;11.60;3.85;;;;;;;4.22;85.50;101604.53;5043838;28;20120;-76
2022/01/28 09:18:16;;;;;;;13.25;4.28;;;;;;;4.35;83.64;101609.38;5045789;28;20037;-77
2022/01/28 09:20:42;;;;;;;16.27;4.47;;;;;;;4.67;83.17;101615.56;5046257;28;20025;-76
2022/01/28 09:23:09;;;;;;;13.00;5.60;;;;;;;4.52;83.81;101620.91;5045210;28;20392;-77
2022/01/28 09:25:34;;;;;;;18.88;5.13;;;;;;;4.65;83.62;101618.47;5045096;28;20407;-77
2022/01/28 09:28:01;;;;;;;10.27;3.88;;;;;;;4.76;83.83;101622.59;5044231;28;20048;-77
2022/01/28 09:30:27;;;;;;;14.57;4.35;;;;;;;4.77;82.75;101623.44;5043396;28;20564;-79
2022/01/28 09:32:53;;;;;;;13.93;5.07;;;;;;;4.89;82.63;101631.97;5045671;28;20120;-77
2022/01/28 09:35:18;;;;;;;11.90;4.57;;;;;;;4.68;82.96;101636.16;5045067;28;20492;-77
2022/01/28 09:37:44;;;;;;;15.55;4.07;;;;;;;4.69;83.68;101635.16;5046216;28;20036;-79
2022/01/28 09:40:11;;;;;;;14.43;3.15;;;;;;;5.10;82.20;101638.56;5071561;28;20040;-77
2022/01/28 09:42:42;;;;;;;18.10;3.80;;;;;;;4.83;82.22;101627.28;5045653;28;20078;-75
2022/01/28 09:45:09;;;;;;;16.55;4.53;;;;;;;4.90;82.09;101637.19;5045822;28;20057;-76
2022/01/28 09:47:35;;;;;;;29.08;4.82;;;;;;;5.13;81.43;101635.50;5045111;28;20111;-76
2022/01/28 09:50:03;;;;;;;24.02;4.60;;;;;;;4.78;81.20;101630.50;5046140;28;20132;-76
2022/01/28 09:52:28;;;;;;;14.18;4.85;;;;;;;4.98;82.52;101622.75;5046549;28;20455;-76
2022/01/28 09:54:54;;;;;;;13.32;2.47;;;;;;;4.66;81.48;101639.06;5045303;28;20065;-78
2022/01/28 09:57:20;;;;;;;16.88;5.40;;;;;;;4.86;79.97;101649.38;5044839;28;20447;-76
2022/01/28 09:59:46;;;;;;;14.05;3.20;;;;;;;4.61;79.91;101641.47;5045454;28;20464;-77
2022/01/28 10:02:12;;;;;;;28.15;4.03;;;;;;;4.69;80.73;101637.84;5045298;28;20048;-78
2022/01/28 10:04:37;;;;;;;17.95;5.05;;;;;;;4.76;80.84;101641.50;5044694;28;20472;-76
2022/01/28 10:07:11;;;;;;;31.85;5.40;;;;;;;5.04;79.78;101634.72;5044599;28;20424;-76
2022/01/28 10:09:37;;;;;;;;;;;;;;;4.95;80.02;101644.75;5045169;28;20120;-78
2022/01/28 10:15:03;;;;;;;;;;;;;;;5.31;79.37;101645.97;5042858;28;20114;-76
2022/01/28 10:17:55;;;;;;;16.00;6.07;;;;;;;5.06;79.26;101648.06;5044437;28;19959;-78
2022/01/28 10:20:21;;;;;;;14.43;3.63;;;;;;;5.45;78.62;101647.03;5044201;28;20048;-76
2022/01/28 10:22:55;;;;;;;23.38;3.67;;;;;;;5.47;77.83;101646.88;5045360;28;20028;-78
2022/01/28 10:25:22;;;;;;;;;;;;;;;5.04;77.83;101655.53;5076974;28;20272;-78
2022/01/28 10:28:05;;;;;;;11.70;3.95;;;;;;;5.50;78.25;101660.00;5044157;28;19921;-78
2022/01/28 10:30:35;;;;;;;12.73;3.78;;;;;;;5.41;78.37;101651.13;5045004;28;20028;-76
2022/01/28 10:33:16;;;;;;;15.45;4.30;;;;;;;5.45;76.68;101647.03;5045244;28;20051;-76
2022/01/28 10:35:57;;;;;;;12.27;3.85;;;;;;;5.32;77.32;101642.25;5044272;28;20383;-77
2022/01/28 10:38:34;;;;;;;18.17;4.20;;;;;;;5.20;76.04;101643.72;5044496;28;20321;-77
2022/01/28 10:41:13;;;;;;;21.35;5.05;;;;;;;5.12;75.04;101647.34;5052936;28;20025;-78
2022/01/28 10:43:50;;;;;;;13.60;3.95;;;;;;;5.36;76.86;101649.00;5064631;28;20174;-79
2022/01/28 10:46:29;;;;;;;16.08;4.05;;;;;;;5.37;75.49;101642.53;5065449;28;20115;-78
2022/01/28 10:49:01;;;;;;;17.38;4.07;;;;;;;5.62;74.58;101646.88;5046207;28;20539;-77
2022/01/28 10:51:40;;;;;;;9.02;4.10;;;;;;;5.73;75.24;101649.09;5041730;28;20017;-77
2022/01/28 10:54:14;;;;;;;17.45;4.00;;;;;;;5.61;74.50;101648.72;5040569;28;20515;-77
2022/01/28 10:56:56;;;;;;;11.75;4.20;;;;;;;5.70;75.44;101638.66;5042681;28;20392;-77
2022/01/28 10:59:25;;;;;;;18.58;4.30;;;;;;;5.91;74.72;101642.50;5042083;28;20521;-80
2022/01/28 11:01:50;;;;;;;15.75;3.92;;;;;;;5.90;73.06;101648.94;5043774;28;20071;-80
2022/01/28 11:04:17;;;;;;;18.20;6.20;;;;;;;5.69;73.35;101647.81;5043109;28;20457;-79
2022/01/28 11:06:44;;;;;;;19.88;4.07;;;;;;;5.63;73.31;101653.13;5043172;28;20463;-79
2022/01/28 11:09:11;;;;;;;14.20;4.05;;;;;;;5.65;72.15;101646.50;5043264;28;20602;-80
2022/01/28 11:11:38;;;;;;;17.35;3.53;;;;;;;5.53;72.36;101656.09;5041080;28;20025;-79
2022/01/28 11:14:04;;;;;;;14.45;3.90;;;;;;;5.55;73.80;101657.59;5043176;28;20033;-80
2022/01/28 11:16:30;;;;;;;21.02;3.85;;;;;;;5.84;74.04;101655.09;5042087;28;20025;-80
2022/01/28 11:18:57;;;;;;;19.83;5.60;;;;;;;5.68;73.28;101656.09;5042706;28;20028;-80
2022/01/28 11:22:08;;;;;;;18.58;5.35;;;;;;;5.70;72.46;101652.19;5042111;28;20013;-80
2022/01/28 11:25:11;;;;;;;27.05;6.25;;;;;;;5.61;73.16;101669.56;5047534;28;20044;-78
2022/01/28 11:27:38;;;;;;;21.25;5.38;;;;;;;5.61;74.31;101678.50;5042211;28;20037;-80
2022/01/28 11:30:33;;;;;;;10.55;3.30;;;;;;;5.76;70.98;101679.53;5042206;28;20090;-79
2022/01/28 11:33:01;;;;;;;11.63;4.15;;;;;;;5.60;71.08;101670.56;5046890;28;20028;-80
2022/01/28 11:35:32;;;;;;;13.48;3.85;;;;;;;5.56;70.44;101661.13;5043865;28;20036;-82
2022/01/28 11:38:04;;;;;;;11.02;3.75;;;;;;;5.44;70.24;101661.59;5044589;28;20497;-79
2022/01/28 11:40:42;;;;;;;9.93;2.88;;;;;;;5.55;71.87;101656.75;5044137;28;20021;-82
2022/01/28 11:43:22;;;;;;;18.40;5.28;;;;;;;5.75;71.88;101651.66;5041993;28;20025;-80
2022/01/28 11:46:07;;;;;;;18.48;3.95;;;;;;;5.98;70.63;101650.69;5041615;28;20017;-78
2022/01/28 11:48:51;;;;;;;13.73;4.00;;;;;;;5.91;71.42;101642.50;5042199;28;20153;-80
2022/01/28 11:51:16;;;;;;;16.42;4.72;;;;;;;5.57;71.14;101650.13;5042387;28;20036;-80
2022/01/28 11:53:54;;;;;;;13.98;3.92;;;;;;;5.34;72.98;101639.38;5043445;28;20383;-81
2022/01/28 11:56:20;;;;;;;17.92;4.00;;;;;;;5.82;73.42;101643.59;5041039;28;20267;-81
2022/01/28 11:59:11;;;;;;;12.65;4.68;;;;;;;6.05;72.60;101635.41;5043636;28;20079;-80
2022/01/28 12:01:39;;;;;;;14.35;3.88;;;;;;;6.06;71.40;101630.84;5043468;28;20025;-80
2022/01/28 12:10:15;;;;;;;16.70;3.90;;;;;;;5.72;67.92;101617.66;5041807;28;20048;-79
2022/01/28 12:12:45;;;;;;;15.45;2.97;;;;;;;5.22;69.88;101615.47;5044022;28;20040;-83
2022/01/28 12:15:12;;;;;;;15.18;4.28;;;;;;;5.75;70.93;101613.75;5058788;28;20040;-81
2022/01/28 12:17:40;;;;;;;8.90;3.13;;;;;;;6.18;71.75;101613.06;5042187;28;20420;-81
2022/01/28 12:20:15;;;;;;;7.55;2.80;;;;;;;6.16;71.21;101614.31;5044355;28;20100;-80
2022/01/28 12:22:59;;;;;;;14.85;3.40;;;;;;;6.31;69.39;101606.13;5044338;28;20605;-82
2022/01/28 12:25:36;;;;;;;13.85;2.42;;;;;;;6.58;70.38;101600.16;5052131;28;20028;-79
2022/01/28 12:28:21;;;;;;;12.95;3.00;;;;;;;6.60;68.81;101601.66;5039455;28;20071;-81
2022/01/28 12:30:58;;;;;;;12.60;3.28;;;;;;;6.55;69.23;101595.97;5043377;28;20037;-79
2022/01/28 12:33:25;;;;;;;14.07;2.95;;;;;;;6.23;67.59;101598.13;5043242;28;20111;-78
2022/01/28 12:35:52;;;;;;;13.68;3.00;;;;;;;6.00;66.64;101601.78;5042215;28;20032;-79
2022/01/28 12:38:25;;;;;;;22.77;5.45;;;;;;;6.29;68.39;101608.19;5043508;28;20385;-79
2022/01/28 12:40:54;;;;;;;17.65;3.42;;;;;;;6.42;69.13;101608.38;5050307;28;20052;-78
2022/01/28 12:43:21;;;;;;;25.95;5.68;;;;;;;6.56;68.94;101600.38;5056379;28;20458;-79
2022/01/28 12:46:24;;;;;;;12.73;3.50;;;;;;;6.42;69.17;101600.25;5046680;28;20025;-79
2022/01/28 12:48:52;;;;;;;8.02;2.15;;;;;;;6.50;67.84;101601.13;5008943;28;20497;-79
2022/01/28 12:51:21;;;;;;;23.75;3.97;;;;;;;6.52;67.88;101602.63;5022632;28;20507;-79
2022/01/28 12:53:53;;;;;;;12.38;2.50;;;;;;;6.46;67.68;101597.13;5041427;28;20044;-78
2022/01/28 12:56:29;;;;;;;11.70;3.33;;;;;;;6.36;68.34;101600.16;5045808;28;20238;-80
2022/01/28 12:58:54;;;;;;;13.52;4.13;;;;;;;6.44;66.41;101610.03;5040771;28;20037;-79
2022/01/28 13:01:20;;;;;;;8.77;2.28;;;;;;;6.35;66.79;101599.31;5045513;28;20032;-80
2022/01/28 13:04:03;;;;;;;19.52;3.20;;;;;;;6.42;66.26;101613.78;5043796;28;20037;-78